sensor_id;sensor_type;location;lat;lon;timestamp;temperature;humidity
36132;DHT22;22185;48.738;9.324;2022-08-16T00:01:25;17.50;99.90
36132;DHT22;22185;48.738;9.324;2022-08-16T00:03:34;17.70;99.90
36132;DHT22;22185;48.738;9.324;2022-08-16T00:05:38;17.70;99.90
36132;DHT22;22185;48.738;9.324;2022-08-16T00:07:49;17.60;99.90
36132;DHT22;22185;48.738;9.324;2022-08-16T00:09:58;17.60;99.90
36132;DHT22;22185;48.738;9.324;2022-08-16T00:12:02;17.60;99.90
36132;DHT22;22185;48.738;9.324;2022-08-16T00:14:08;17.60;99.90
36132;DHT22;22185;48.738;9.324;2022-08-16T00:16:10;17.50;99.90
36132;DHT22;22185;48.738;9.324;2022-08-16T00:18:32;17.50;99.90
36132;DHT22;22185;48.738;9.324;2022-08-16T00:20:35;17.50;99.90
36132;DHT22;22185;48.738;9.324;2022-08-16T00:22:42;17.50;99.90
36132;DHT22;22185;48.738;9.324;2022-08-16T00:24:44;17.40;99.90
36132;DHT22;22185;48.738;9.324;2022-08-16T00:26:52;17.50;99.90
36132;DHT22;22185;48.738;9.324;2022-08-16T00:28:56;17.40;99.90
36132;DHT22;22185;48.738;9.324;2022-08-16T00:30:59;17.40;99.90
36132;DHT22;22185;48.738;9.324;2022-08-16T00:33:02;17.40;99.90
36132;DHT22;22185;48.738;9.324;2022-08-16T00:35:07;17.40;99.90
36132;DHT22;22185;48.738;9.324;2022-08-16T00:37:17;17.30;99.90
36132;DHT22;22185;48.738;9.324;2022-08-16T00:39:21;17.30;99.90
36132;DHT22;22185;48.738;9.324;2022-08-16T00:41:23;17.30;99.90
36132;DHT22;22185;48.738;9.324;2022-08-16T00:43:30;17.20;99.90
36132;DHT22;22185;48.738;9.324;2022-08-16T00:48:30;17.30;99.90
36132;DHT22;22185;48.738;9.324;2022-08-16T00:50:46;17.20;99.90
36132;DHT22;22185;48.738;9.324;2022-08-16T00:52:55;17.20;99.90
36132;DHT22;22185;48.738;9.324;2022-08-16T00:54:59;17.20;99.90
36132;DHT22;22185;48.738;9.324;2022-08-16T00:57:02;17.10;99.90
36132;DHT22;22185;48.738;9.324;2022-08-16T00:59:07;17.10;99.90
36132;DHT22;22185;48.738;9.324;2022-08-16T01:01:11;17.10;99.90
36132;DHT22;22185;48.738;9.324;2022-08-16T01:03:18;17.10;99.90
36132;DHT22;22185;48.738;9.324;2022-08-16T01:05:31;17.00;99.90
36132;DHT22;22185;48.738;9.324;2022-08-16T01:07:33;17.20;99.90
36132;DHT22;22185;48.738;9.324;2022-08-16T01:09:53;17.20;99.90
36132;DHT22;22185;48.738;9.324;2022-08-16T01:11:55;17.20;99.90
36132;DHT22;22185;48.738;9.324;2022-08-16T01:13:59;17.30;99.90
36132;DHT22;22185;48.738;9.324;2022-08-16T01:16:07;17.20;99.90
36132;DHT22;22185;48.738;9.324;2022-08-16T01:18:13;17.10;99.90
36132;DHT22;22185;48.738;9.324;2022-08-16T01:20:43;17.10;99.90
36132;DHT22;22185;48.738;9.324;2022-08-16T01:25:00;17.00;99.90
36132;DHT22;22185;48.738;9.324;2022-08-16T01:27:12;17.00;99.90
36132;DHT22;22185;48.738;9.324;2022-08-16T01:29:24;17.00;99.90
36132;DHT22;22185;48.738;9.324;2022-08-16T01:31:48;17.00;99.90
36132;DHT22;22185;48.738;9.324;2022-08-16T01:33:52;16.90;99.90
36132;DHT22;22185;48.738;9.324;2022-08-16T01:36:00;17.00;99.90
36132;DHT22;22185;48.738;9.324;2022-08-16T01:38:29;17.00;99.90
36132;DHT22;22185;48.738;9.324;2022-08-16T01:40:31;17.10;99.90
36132;DHT22;22185;48.738;9.324;2022-08-16T01:42:34;16.90;99.90
36132;DHT22;22185;48.738;9.324;2022-08-16T01:44:38;16.90;99.90
36132;DHT22;22185;48.738;9.324;2022-08-16T01:46:43;16.80;99.90
36132;DHT22;22185;48.738;9.324;2022-08-16T01:48:46;16.90;99.90
36132;DHT22;22185;48.738;9.324;2022-08-16T01:50:50;16.90;99.90
36132;DHT22;22185;48.738;9.324;2022-08-16T01:53:12;16.90;99.90
36132;DHT22;22185;48.738;9.324;2022-08-16T01:55:16;16.90;99.90
36132;DHT22;22185;48.738;9.324;2022-08-16T01:57:18;16.90;99.90
36132;DHT22;22185;48.738;9.324;2022-08-16T01:59:27;16.90;99.90
36132;DHT22;22185;48.738;9.324;2022-08-16T02:01:30;17.00;99.90
36132;DHT22;22185;48.738;9.324;2022-08-16T02:03:33;16.90;99.90
36132;DHT22;22185;48.738;9.324;2022-08-16T02:05:35;16.80;99.90
36132;DHT22;22185;48.738;9.324;2022-08-16T02:07:37;16.80;99.90
36132;DHT22;22185;48.738;9.324;2022-08-16T02:09:46;16.70;99.90
36132;DHT22;22185;48.738;9.324;2022-08-16T02:11:59;16.80;99.90
36132;DHT22;22185;48.738;9.324;2022-08-16T02:14:24;16.90;99.90
36132;DHT22;22185;48.738;9.324;2022-08-16T02:16:28;16.80;99.90
36132;DHT22;22185;48.738;9.324;2022-08-16T02:18:30;16.80;99.90
36132;DHT22;22185;48.738;9.324;2022-08-16T02:20:36;16.90;99.90
36132;DHT22;22185;48.738;9.324;2022-08-16T02:22:43;16.90;99.90
36132;DHT22;22185;48.738;9.324;2022-08-16T02:24:48;16.90;99.90
36132;DHT22;22185;48.738;9.324;2022-08-16T02:26:53;16.90;99.90
36132;DHT22;22185;48.738;9.324;2022-08-16T02:28:55;16.80;99.90
36132;DHT22;22185;48.738;9.324;2022-08-16T02:31:01;16.90;99.90
36132;DHT22;22185;48.738;9.324;2022-08-16T02:33:04;17.00;99.90
36132;DHT22;22185;48.738;9.324;2022-08-16T02:35:07;17.00;99.90
36132;DHT22;22185;48.738;9.324;2022-08-16T02:37:10;17.00;99.90
36132;DHT22;22185;48.738;9.324;2022-08-16T02:39:14;16.90;99.90
36132;DHT22;22185;48.738;9.324;2022-08-16T02:41:16;17.00;99.90
36132;DHT22;22185;48.738;9.324;2022-08-16T02:43:22;17.00;99.90
36132;DHT22;22185;48.738;9.324;2022-08-16T02:45:28;16.90;99.90
36132;DHT22;22185;48.738;9.324;2022-08-16T02:47:30;17.00;99.90
36132;DHT22;22185;48.738;9.324;2022-08-16T02:49:52;16.90;99.90
36132;DHT22;22185;48.738;9.324;2022-08-16T02:52:14;16.90;99.90
36132;DHT22;22185;48.738;9.324;2022-08-16T02:54:25;16.90;99.90
36132;DHT22;22185;48.738;9.324;2022-08-16T02:56:27;16.90;99.90
36132;DHT22;22185;48.738;9.324;2022-08-16T02:58:33;16.90;99.90
36132;DHT22;22185;48.738;9.324;2022-08-16T03:00:35;16.90;99.90
36132;DHT22;22185;48.738;9.324;2022-08-16T03:02:39;16.80;99.90
36132;DHT22;22185;48.738;9.324;2022-08-16T03:04:42;16.90;99.90
36132;DHT22;22185;48.738;9.324;2022-08-16T03:06:54;16.90;99.90
36132;DHT22;22185;48.738;9.324;2022-08-16T03:08:57;16.80;99.90
36132;DHT22;22185;48.738;9.324;2022-08-16T03:11:02;16.80;99.90
36132;DHT22;22185;48.738;9.324;2022-08-16T03:13:04;16.80;99.90
36132;DHT22;22185;48.738;9.324;2022-08-16T03:15:13;16.70;99.90
36132;DHT22;22185;48.738;9.324;2022-08-16T03:17:18;16.70;99.90
36132;DHT22;22185;48.738;9.324;2022-08-16T03:19:22;16.80;99.90
36132;DHT22;22185;48.738;9.324;2022-08-16T03:21:24;16.80;99.90
36132;DHT22;22185;48.738;9.324;2022-08-16T03:23:26;16.70;99.90
36132;DHT22;22185;48.738;9.324;2022-08-16T03:25:36;16.70;99.90
36132;DHT22;22185;48.738;9.324;2022-08-16T03:27:44;16.70;99.90
36132;DHT22;22185;48.738;9.324;2022-08-16T03:29:47;16.70;99.90
36132;DHT22;22185;48.738;9.324;2022-08-16T03:31:55;16.60;99.90
36132;DHT22;22185;48.738;9.324;2022-08-16T03:33:59;16.70;99.90
36132;DHT22;22185;48.738;9.324;2022-08-16T03:36:02;16.70;99.90
36132;DHT22;22185;48.738;9.324;2022-08-16T03:38:25;16.80;99.90
36132;DHT22;22185;48.738;9.324;2022-08-16T03:40:36;16.70;99.90
36132;DHT22;22185;48.738;9.324;2022-08-16T03:42:38;16.60;99.90
36132;DHT22;22185;48.738;9.324;2022-08-16T03:45:00;16.60;99.90
36132;DHT22;22185;48.738;9.324;2022-08-16T03:47:04;16.60;99.90
36132;DHT22;22185;48.738;9.324;2022-08-16T03:49:11;16.70;99.90
36132;DHT22;22185;48.738;9.324;2022-08-16T03:51:13;16.60;99.90
36132;DHT22;22185;48.738;9.324;2022-08-16T03:53:15;16.70;99.90
36132;DHT22;22185;48.738;9.324;2022-08-16T03:55:17;16.70;99.90
36132;DHT22;22185;48.738;9.324;2022-08-16T03:57:20;16.60;99.90
36132;DHT22;22185;48.738;9.324;2022-08-16T03:59:23;16.50;99.90
36132;DHT22;22185;48.738;9.324;2022-08-16T04:01:25;16.60;99.90
36132;DHT22;22185;48.738;9.324;2022-08-16T04:03:30;16.60;99.90
36132;DHT22;22185;48.738;9.324;2022-08-16T04:05:40;16.60;99.90
36132;DHT22;22185;48.738;9.324;2022-08-16T04:07:47;16.60;99.90
36132;DHT22;22185;48.738;9.324;2022-08-16T04:09:51;16.60;99.90
36132;DHT22;22185;48.738;9.324;2022-08-16T04:11:53;16.50;99.90
36132;DHT22;22185;48.738;9.324;2022-08-16T04:13:55;16.50;99.90
36132;DHT22;22185;48.738;9.324;2022-08-16T04:16:16;16.40;99.90
36132;DHT22;22185;48.738;9.324;2022-08-16T04:18:28;16.40;99.90
36132;DHT22;22185;48.738;9.324;2022-08-16T04:20:32;16.40;99.90
36132;DHT22;22185;48.738;9.324;2022-08-16T04:22:37;16.30;99.90
36132;DHT22;22185;48.738;9.324;2022-08-16T04:24:40;16.40;99.90
36132;DHT22;22185;48.738;9.324;2022-08-16T04:26:55;16.30;99.90
36132;DHT22;22185;48.738;9.324;2022-08-16T04:28:59;16.30;99.90
36132;DHT22;22185;48.738;9.324;2022-08-16T04:31:19;16.30;99.90
36132;DHT22;22185;48.738;9.324;2022-08-16T04:33:21;16.40;99.90
36132;DHT22;22185;48.738;9.324;2022-08-16T04:35:28;16.40;99.90
36132;DHT22;22185;48.738;9.324;2022-08-16T04:37:35;16.40;99.90
36132;DHT22;22185;48.738;9.324;2022-08-16T04:39:43;16.50;99.90
36132;DHT22;22185;48.738;9.324;2022-08-16T04:41:55;16.50;99.90
36132;DHT22;22185;48.738;9.324;2022-08-16T04:43:58;16.40;99.90
36132;DHT22;22185;48.738;9.324;2022-08-16T04:46:00;16.50;99.90
36132;DHT22;22185;48.738;9.324;2022-08-16T04:48:04;16.60;99.90
36132;DHT22;22185;48.738;9.324;2022-08-16T04:50:07;16.60;99.90
36132;DHT22;22185;48.738;9.324;2022-08-16T04:52:10;16.70;99.90
36132;DHT22;22185;48.738;9.324;2022-08-16T04:54:33;16.80;99.90
36132;DHT22;22185;48.738;9.324;2022-08-16T04:56:35;16.80;99.90
36132;DHT22;22185;48.738;9.324;2022-08-16T04:58:46;16.90;99.90
36132;DHT22;22185;48.738;9.324;2022-08-16T05:00:48;16.90;99.90
36132;DHT22;22185;48.738;9.324;2022-08-16T05:02:51;16.90;99.90
36132;DHT22;22185;48.738;9.324;2022-08-16T05:04:57;17.00;99.90
36132;DHT22;22185;48.738;9.324;2022-08-16T05:06:59;17.00;99.90
36132;DHT22;22185;48.738;9.324;2022-08-16T05:09:01;17.00;99.90
36132;DHT22;22185;48.738;9.324;2022-08-16T05:11:07;17.00;99.90
36132;DHT22;22185;48.738;9.324;2022-08-16T05:13:09;17.10;99.90
36132;DHT22;22185;48.738;9.324;2022-08-16T05:15:16;17.20;99.90
36132;DHT22;22185;48.738;9.324;2022-08-16T05:17:19;17.30;99.90
36132;DHT22;22185;48.738;9.324;2022-08-16T05:19:25;17.40;99.90
36132;DHT22;22185;48.738;9.324;2022-08-16T05:21:37;17.50;99.90
36132;DHT22;22185;48.738;9.324;2022-08-16T05:23:40;17.50;99.90
36132;DHT22;22185;48.738;9.324;2022-08-16T05:25:52;17.50;99.90
36132;DHT22;22185;48.738;9.324;2022-08-16T05:27:54;17.60;99.90
36132;DHT22;22185;48.738;9.324;2022-08-16T05:29:58;17.60;99.90
36132;DHT22;22185;48.738;9.324;2022-08-16T05:32:20;17.60;99.90
36132;DHT22;22185;48.738;9.324;2022-08-16T05:34:42;17.70;99.90
36132;DHT22;22185;48.738;9.324;2022-08-16T05:36:43;17.70;99.90
36132;DHT22;22185;48.738;9.324;2022-08-16T05:38:47;17.70;99.90
36132;DHT22;22185;48.738;9.324;2022-08-16T05:40:48;17.70;99.90
36132;DHT22;22185;48.738;9.324;2022-08-16T05:43:00;17.70;99.90
36132;DHT22;22185;48.738;9.324;2022-08-16T05:45:05;17.60;99.90
36132;DHT22;22185;48.738;9.324;2022-08-16T05:47:07;17.60;99.90
36132;DHT22;22185;48.738;9.324;2022-08-16T05:49:16;17.70;99.90
36132;DHT22;22185;48.738;9.324;2022-08-16T05:51:23;17.80;99.90
36132;DHT22;22185;48.738;9.324;2022-08-16T05:53:39;17.90;99.90
36132;DHT22;22185;48.738;9.324;2022-08-16T05:55:42;17.90;99.90
36132;DHT22;22185;48.738;9.324;2022-08-16T05:57:45;17.90;99.90
36132;DHT22;22185;48.738;9.324;2022-08-16T05:59:53;17.90;99.90
36132;DHT22;22185;48.738;9.324;2022-08-16T06:02:01;18.00;99.90
36132;DHT22;22185;48.738;9.324;2022-08-16T06:04:07;18.00;99.90
36132;DHT22;22185;48.738;9.324;2022-08-16T06:06:14;18.10;99.90
36132;DHT22;22185;48.738;9.324;2022-08-16T06:08:29;18.20;99.90
36132;DHT22;22185;48.738;9.324;2022-08-16T06:10:42;18.20;99.90
36132;DHT22;22185;48.738;9.324;2022-08-16T06:13:05;18.20;99.90
36132;DHT22;22185;48.738;9.324;2022-08-16T06:15:14;18.20;99.90
36132;DHT22;22185;48.738;9.324;2022-08-16T06:17:17;18.20;99.90
36132;DHT22;22185;48.738;9.324;2022-08-16T06:19:22;18.20;99.90
36132;DHT22;22185;48.738;9.324;2022-08-16T06:21:24;18.30;99.90
36132;DHT22;22185;48.738;9.324;2022-08-16T06:23:26;18.40;99.90
36132;DHT22;22185;48.738;9.324;2022-08-16T06:25:33;18.40;99.90
36132;DHT22;22185;48.738;9.324;2022-08-16T06:27:39;18.40;99.90
36132;DHT22;22185;48.738;9.324;2022-08-16T06:29:41;18.40;99.90
36132;DHT22;22185;48.738;9.324;2022-08-16T06:31:50;18.40;99.90
36132;DHT22;22185;48.738;9.324;2022-08-16T06:33:52;18.30;99.90
36132;DHT22;22185;48.738;9.324;2022-08-16T06:35:54;18.30;99.90
36132;DHT22;22185;48.738;9.324;2022-08-16T06:38:00;18.40;99.90
36132;DHT22;22185;48.738;9.324;2022-08-16T06:40:04;18.40;99.90
36132;DHT22;22185;48.738;9.324;2022-08-16T06:42:13;18.40;99.90
36132;DHT22;22185;48.738;9.324;2022-08-16T06:44:19;18.50;99.90
36132;DHT22;22185;48.738;9.324;2022-08-16T06:46:30;18.50;99.90
36132;DHT22;22185;48.738;9.324;2022-08-16T06:48:37;18.50;99.90
36132;DHT22;22185;48.738;9.324;2022-08-16T06:50:44;18.50;99.90
36132;DHT22;22185;48.738;9.324;2022-08-16T06:52:49;18.60;99.90
36132;DHT22;22185;48.738;9.324;2022-08-16T06:55:06;18.60;99.90
36132;DHT22;22185;48.738;9.324;2022-08-16T06:57:13;18.70;99.90
36132;DHT22;22185;48.738;9.324;2022-08-16T06:59:17;18.70;99.90
36132;DHT22;22185;48.738;9.324;2022-08-16T07:01:20;18.70;99.90
36132;DHT22;22185;48.738;9.324;2022-08-16T07:03:42;18.70;99.90
36132;DHT22;22185;48.738;9.324;2022-08-16T07:05:57;18.80;99.90
36132;DHT22;22185;48.738;9.324;2022-08-16T07:07:59;18.90;99.90
36132;DHT22;22185;48.738;9.324;2022-08-16T07:10:06;18.90;99.90
36132;DHT22;22185;48.738;9.324;2022-08-16T07:12:10;18.90;99.90
36132;DHT22;22185;48.738;9.324;2022-08-16T07:14:15;18.90;99.90
36132;DHT22;22185;48.738;9.324;2022-08-16T07:16:27;19.10;99.90
36132;DHT22;22185;48.738;9.324;2022-08-16T07:18:29;19.10;99.90
36132;DHT22;22185;48.738;9.324;2022-08-16T07:20:31;19.10;99.90
36132;DHT22;22185;48.738;9.324;2022-08-16T07:22:48;19.10;99.90
36132;DHT22;22185;48.738;9.324;2022-08-16T07:24:59;19.10;99.90
36132;DHT22;22185;48.738;9.324;2022-08-16T07:27:02;19.20;99.90
36132;DHT22;22185;48.738;9.324;2022-08-16T07:29:09;19.30;99.90
36132;DHT22;22185;48.738;9.324;2022-08-16T07:31:11;19.40;99.90
36132;DHT22;22185;48.738;9.324;2022-08-16T07:33:14;19.40;99.90
36132;DHT22;22185;48.738;9.324;2022-08-16T07:35:38;19.50;99.90
36132;DHT22;22185;48.738;9.324;2022-08-16T07:37:45;19.70;99.90
36132;DHT22;22185;48.738;9.324;2022-08-16T07:39:47;19.70;99.90
36132;DHT22;22185;48.738;9.324;2022-08-16T07:41:49;19.80;99.90
36132;DHT22;22185;48.738;9.324;2022-08-16T07:43:53;19.80;99.90
36132;DHT22;22185;48.738;9.324;2022-08-16T07:45:55;19.80;99.90
36132;DHT22;22185;48.738;9.324;2022-08-16T07:47:57;19.80;99.90
36132;DHT22;22185;48.738;9.324;2022-08-16T07:49:59;19.90;99.90
36132;DHT22;22185;48.738;9.324;2022-08-16T07:52:06;19.90;99.90
36132;DHT22;22185;48.738;9.324;2022-08-16T07:54:20;19.90;99.90
36132;DHT22;22185;48.738;9.324;2022-08-16T07:56:38;20.00;99.90
36132;DHT22;22185;48.738;9.324;2022-08-16T07:58:40;20.00;99.90
36132;DHT22;22185;48.738;9.324;2022-08-16T08:00:44;20.10;99.90
36132;DHT22;22185;48.738;9.324;2022-08-16T08:02:46;20.10;99.90
36132;DHT22;22185;48.738;9.324;2022-08-16T08:04:53;20.20;99.90
36132;DHT22;22185;48.738;9.324;2022-08-16T08:06:55;20.30;99.90
36132;DHT22;22185;48.738;9.324;2022-08-16T08:08:57;20.40;99.90
36132;DHT22;22185;48.738;9.324;2022-08-16T08:11:00;20.50;99.90
36132;DHT22;22185;48.738;9.324;2022-08-16T08:13:09;20.60;99.90
36132;DHT22;22185;48.738;9.324;2022-08-16T08:15:11;20.60;99.90
36132;DHT22;22185;48.738;9.324;2022-08-16T08:17:15;20.70;99.90
36132;DHT22;22185;48.738;9.324;2022-08-16T08:19:18;20.90;99.90
36132;DHT22;22185;48.738;9.324;2022-08-16T08:21:24;20.90;99.90
36132;DHT22;22185;48.738;9.324;2022-08-16T08:23:28;21.00;99.90
36132;DHT22;22185;48.738;9.324;2022-08-16T08:25:30;20.90;99.90
36132;DHT22;22185;48.738;9.324;2022-08-16T08:27:52;20.90;99.90
36132;DHT22;22185;48.738;9.324;2022-08-16T08:29:58;21.10;99.90
36132;DHT22;22185;48.738;9.324;2022-08-16T08:32:20;21.20;99.90
36132;DHT22;22185;48.738;9.324;2022-08-16T08:34:42;21.40;99.90
36132;DHT22;22185;48.738;9.324;2022-08-16T08:36:47;21.70;99.90
36132;DHT22;22185;48.738;9.324;2022-08-16T08:38:54;21.80;99.90
36132;DHT22;22185;48.738;9.324;2022-08-16T08:40:56;21.70;99.90
36132;DHT22;22185;48.738;9.324;2022-08-16T08:43:01;21.80;99.90
36132;DHT22;22185;48.738;9.324;2022-08-16T08:45:15;22.10;99.90
36132;DHT22;22185;48.738;9.324;2022-08-16T08:47:37;22.20;99.90
36132;DHT22;22185;48.738;9.324;2022-08-16T08:49:41;22.20;99.90
36132;DHT22;22185;48.738;9.324;2022-08-16T08:51:56;22.30;99.90
36132;DHT22;22185;48.738;9.324;2022-08-16T08:53:59;22.20;99.90
36132;DHT22;22185;48.738;9.324;2022-08-16T08:56:01;22.40;99.90
36132;DHT22;22185;48.738;9.324;2022-08-16T08:58:23;22.50;99.90
36132;DHT22;22185;48.738;9.324;2022-08-16T09:00:35;22.90;99.90
36132;DHT22;22185;48.738;9.324;2022-08-16T09:02:52;23.10;99.90
36132;DHT22;22185;48.738;9.324;2022-08-16T09:04:54;23.40;99.90
36132;DHT22;22185;48.738;9.324;2022-08-16T09:06:57;23.60;99.90
36132;DHT22;22185;48.738;9.324;2022-08-16T09:09:04;23.70;99.90
36132;DHT22;22185;48.738;9.324;2022-08-16T09:11:07;23.60;99.90
36132;DHT22;22185;48.738;9.324;2022-08-16T09:13:11;23.60;99.90
36132;DHT22;22185;48.738;9.324;2022-08-16T09:15:17;23.40;99.90
36132;DHT22;22185;48.738;9.324;2022-08-16T09:17:22;23.30;99.90
36132;DHT22;22185;48.738;9.324;2022-08-16T09:19:45;23.40;99.90
36132;DHT22;22185;48.738;9.324;2022-08-16T09:21:49;23.60;99.90
36132;DHT22;22185;48.738;9.324;2022-08-16T09:23:56;23.70;99.90
36132;DHT22;22185;48.738;9.324;2022-08-16T09:25:59;23.80;99.90
36132;DHT22;22185;48.738;9.324;2022-08-16T09:28:02;23.70;99.90
36132;DHT22;22185;48.738;9.324;2022-08-16T09:30:10;23.80;99.90
36132;DHT22;22185;48.738;9.324;2022-08-16T09:32:32;24.00;99.90
36132;DHT22;22185;48.738;9.324;2022-08-16T09:34:33;24.30;99.90
36132;DHT22;22185;48.738;9.324;2022-08-16T09:36:35;24.30;99.90
36132;DHT22;22185;48.738;9.324;2022-08-16T09:38:45;24.40;99.90
36132;DHT22;22185;48.738;9.324;2022-08-16T09:40:51;24.60;99.90
36132;DHT22;22185;48.738;9.324;2022-08-16T09:42:53;24.90;99.90
36132;DHT22;22185;48.738;9.324;2022-08-16T09:45:00;25.10;99.90
36132;DHT22;22185;48.738;9.324;2022-08-16T09:47:18;25.30;99.90
36132;DHT22;22185;48.738;9.324;2022-08-16T09:49:27;25.30;99.90
36132;DHT22;22185;48.738;9.324;2022-08-16T09:51:41;25.20;99.90
36132;DHT22;22185;48.738;9.324;2022-08-16T09:53:43;25.50;99.90
36132;DHT22;22185;48.738;9.324;2022-08-16T09:55:55;25.60;99.90
36132;DHT22;22185;48.738;9.324;2022-08-16T09:57:58;25.50;99.90
36132;DHT22;22185;48.738;9.324;2022-08-16T10:00:00;25.10;99.90
36132;DHT22;22185;48.738;9.324;2022-08-16T10:02:02;25.00;99.90
36132;DHT22;22185;48.738;9.324;2022-08-16T10:04:27;25.10;99.90
36132;DHT22;22185;48.738;9.324;2022-08-16T10:06:35;25.10;99.90
36132;DHT22;22185;48.738;9.324;2022-08-16T10:08:43;25.40;99.90
36132;DHT22;22185;48.738;9.324;2022-08-16T10:11:06;25.20;99.90
36132;DHT22;22185;48.738;9.324;2022-08-16T10:13:29;25.30;99.90
36132;DHT22;22185;48.738;9.324;2022-08-16T10:15:33;25.20;99.90
36132;DHT22;22185;48.738;9.324;2022-08-16T10:17:35;25.20;99.90
36132;DHT22;22185;48.738;9.324;2022-08-16T10:19:43;25.10;99.90
36132;DHT22;22185;48.738;9.324;2022-08-16T10:21:50;24.90;99.90
36132;DHT22;22185;48.738;9.324;2022-08-16T10:23:57;24.80;99.90
36132;DHT22;22185;48.738;9.324;2022-08-16T10:25:58;24.80;99.90
36132;DHT22;22185;48.738;9.324;2022-08-16T10:28:20;25.00;99.90
36132;DHT22;22185;48.738;9.324;2022-08-16T10:30:35;25.70;99.90
36132;DHT22;22185;48.738;9.324;2022-08-16T10:32:40;26.50;99.90
36132;DHT22;22185;48.738;9.324;2022-08-16T10:34:42;26.40;99.90
36132;DHT22;22185;48.738;9.324;2022-08-16T10:36:45;26.80;99.90
36132;DHT22;22185;48.738;9.324;2022-08-16T10:38:54;27.40;99.90
36132;DHT22;22185;48.738;9.324;2022-08-16T10:40:58;27.10;99.90
36132;DHT22;22185;48.738;9.324;2022-08-16T10:43:01;27.10;99.90
36132;DHT22;22185;48.738;9.324;2022-08-16T10:45:03;27.00;99.90
36132;DHT22;22185;48.738;9.324;2022-08-16T10:47:05;27.10;99.90
36132;DHT22;22185;48.738;9.324;2022-08-16T10:49:10;27.40;99.90
36132;DHT22;22185;48.738;9.324;2022-08-16T10:51:12;27.30;99.90
36132;DHT22;22185;48.738;9.324;2022-08-16T10:53:15;27.20;99.90
36132;DHT22;22185;48.738;9.324;2022-08-16T10:55:22;27.00;99.90
36132;DHT22;22185;48.738;9.324;2022-08-16T10:57:44;26.50;99.90
36132;DHT22;22185;48.738;9.324;2022-08-16T10:59:48;26.30;99.90
36132;DHT22;22185;48.738;9.324;2022-08-16T11:01:59;26.30;99.90
36132;DHT22;22185;48.738;9.324;2022-08-16T11:04:25;26.10;99.90
36132;DHT22;22185;48.738;9.324;2022-08-16T11:06:58;26.20;99.90
36132;DHT22;22185;48.738;9.324;2022-08-16T11:09:09;26.00;99.90
36132;DHT22;22185;48.738;9.324;2022-08-16T11:11:29;26.30;99.90
36132;DHT22;22185;48.738;9.324;2022-08-16T11:13:31;26.90;99.90
36132;DHT22;22185;48.738;9.324;2022-08-16T11:15:54;27.80;99.90
36132;DHT22;22185;48.738;9.324;2022-08-16T11:18:02;28.40;99.90
36132;DHT22;22185;48.738;9.324;2022-08-16T11:20:25;28.90;99.90
36132;DHT22;22185;48.738;9.324;2022-08-16T11:22:50;28.90;99.90
36132;DHT22;22185;48.738;9.324;2022-08-16T11:24:52;28.70;99.90
36132;DHT22;22185;48.738;9.324;2022-08-16T11:27:18;28.30;99.90
36132;DHT22;22185;48.738;9.324;2022-08-16T11:29:24;28.10;99.90
36132;DHT22;22185;48.738;9.324;2022-08-16T11:31:27;28.60;99.90
36132;DHT22;22185;48.738;9.324;2022-08-16T11:33:33;28.30;99.90
36132;DHT22;22185;48.738;9.324;2022-08-16T11:35:55;27.90;99.90
36132;DHT22;22185;48.738;9.324;2022-08-16T11:38:19;27.50;99.90
36132;DHT22;22185;48.738;9.324;2022-08-16T11:40:47;28.90;99.90
36132;DHT22;22185;48.738;9.324;2022-08-16T11:42:53;30.20;99.90
36132;DHT22;22185;48.738;9.324;2022-08-16T11:44:55;30.20;99.90
36132;DHT22;22185;48.738;9.324;2022-08-16T11:46:58;30.50;99.90
36132;DHT22;22185;48.738;9.324;2022-08-16T11:49:03;29.50;99.90
36132;DHT22;22185;48.738;9.324;2022-08-16T11:51:13;29.00;99.90
36132;DHT22;22185;48.738;9.324;2022-08-16T11:53:15;30.30;99.90
36132;DHT22;22185;48.738;9.324;2022-08-16T11:55:19;30.70;99.90
36132;DHT22;22185;48.738;9.324;2022-08-16T11:57:24;31.60;99.90
36132;DHT22;22185;48.738;9.324;2022-08-16T11:59:27;32.40;99.90
36132;DHT22;22185;48.738;9.324;2022-08-16T12:01:29;31.60;99.90
36132;DHT22;22185;48.738;9.324;2022-08-16T12:03:51;32.10;99.90
36132;DHT22;22185;48.738;9.324;2022-08-16T12:05:59;33.20;99.90
36132;DHT22;22185;48.738;9.324;2022-08-16T12:08:40;33.80;99.90
36132;DHT22;22185;48.738;9.324;2022-08-16T12:10:47;33.80;99.90
36132;DHT22;22185;48.738;9.324;2022-08-16T12:12:54;34.50;95.50
36132;DHT22;22185;48.738;9.324;2022-08-16T12:15:04;35.20;99.90
36132;DHT22;22185;48.738;9.324;2022-08-16T12:17:08;35.30;99.90
36132;DHT22;22185;48.738;9.324;2022-08-16T12:19:10;34.90;97.60
36132;DHT22;22185;48.738;9.324;2022-08-16T12:21:15;35.80;92.60
36132;DHT22;22185;48.738;9.324;2022-08-16T12:23:20;33.50;91.20
36132;DHT22;22185;48.738;9.324;2022-08-16T12:25:24;34.70;92.30
36132;DHT22;22185;48.738;9.324;2022-08-16T12:27:26;34.80;87.80
36132;DHT22;22185;48.738;9.324;2022-08-16T12:29:31;35.90;88.30
36132;DHT22;22185;48.738;9.324;2022-08-16T12:31:33;34.60;84.00
36132;DHT22;22185;48.738;9.324;2022-08-16T12:33:37;35.70;90.60
36132;DHT22;22185;48.738;9.324;2022-08-16T12:35:47;37.00;84.00
36132;DHT22;22185;48.738;9.324;2022-08-16T12:37:49;37.00;81.80
36132;DHT22;22185;48.738;9.324;2022-08-16T12:39:57;37.20;81.70
36132;DHT22;22185;48.738;9.324;2022-08-16T12:42:00;36.70;75.60
36132;DHT22;22185;48.738;9.324;2022-08-16T12:44:04;37.10;85.00
36132;DHT22;22185;48.738;9.324;2022-08-16T12:46:09;36.70;73.20
36132;DHT22;22185;48.738;9.324;2022-08-16T12:48:14;36.90;78.40
36132;DHT22;22185;48.738;9.324;2022-08-16T12:50:36;32.30;77.80
36132;DHT22;22185;48.738;9.324;2022-08-16T12:52:40;32.70;96.40
36132;DHT22;22185;48.738;9.324;2022-08-16T12:54:54;35.80;93.30
36132;DHT22;22185;48.738;9.324;2022-08-16T12:56:58;37.20;84.00
36132;DHT22;22185;48.738;9.324;2022-08-16T12:59:05;37.80;76.90
36132;DHT22;22185;48.738;9.324;2022-08-16T13:01:11;38.40;87.00
36132;DHT22;22185;48.738;9.324;2022-08-16T13:03:15;38.40;81.40
36132;DHT22;22185;48.738;9.324;2022-08-16T13:05:17;35.70;69.70
36132;DHT22;22185;48.738;9.324;2022-08-16T13:07:19;34.40;85.10
36132;DHT22;22185;48.738;9.324;2022-08-16T13:09:28;36.80;75.90
36132;DHT22;22185;48.738;9.324;2022-08-16T13:11:39;36.00;73.00
36132;DHT22;22185;48.738;9.324;2022-08-16T13:13:58;35.80;69.30
36132;DHT22;22185;48.738;9.324;2022-08-16T13:16:05;37.10;73.10
36132;DHT22;22185;48.738;9.324;2022-08-16T13:18:22;36.00;68.80
36132;DHT22;22185;48.738;9.324;2022-08-16T13:20:35;36.10;77.10
36132;DHT22;22185;48.738;9.324;2022-08-16T13:22:41;36.60;67.40
36132;DHT22;22185;48.738;9.324;2022-08-16T13:24:44;35.80;75.00
36132;DHT22;22185;48.738;9.324;2022-08-16T13:26:47;37.10;75.10
36132;DHT22;22185;48.738;9.324;2022-08-16T13:28:53;37.30;68.90
36132;DHT22;22185;48.738;9.324;2022-08-16T13:30:57;37.00;66.80